createdAt,value
2019-04-26T00:00:35.787Z,11.35
2019-04-26T00:03:14.192Z,11.43
2019-04-26T00:05:50.357Z,12.05
2019-04-26T00:08:26.251Z,13.48
2019-04-26T00:11:03.802Z,13.00
2019-04-26T00:14:03.006Z,12.25
2019-04-26T00:16:47.981Z,12.82
2019-04-26T00:19:23.927Z,13.38
2019-04-26T00:22:00.190Z,12.88
2019-04-26T00:24:36.566Z,13.32
2019-04-26T00:27:12.710Z,13.55
2019-04-26T00:29:49.087Z,13.45
2019-04-26T00:32:25.143Z,13.55
2019-04-26T00:35:01.212Z,13.83
2019-04-26T00:37:37.172Z,13.68
2019-04-26T00:40:14.418Z,13.18
2019-04-26T00:42:52.118Z,13.72
2019-04-26T00:45:30.972Z,14.13
2019-04-26T00:48:07.648Z,13.95
2019-04-26T00:50:44.988Z,13.30
2019-04-26T00:53:22.204Z,13.75
2019-04-26T00:56:00.141Z,14.10
2019-04-26T00:58:37.208Z,14.03
2019-04-26T01:01:15.088Z,14.28
2019-04-26T01:03:52.090Z,12.98
2019-04-26T01:06:29.685Z,13.22
2019-04-26T01:09:07.076Z,13.68
2019-04-26T01:11:44.596Z,14.70
2019-04-26T01:14:20.480Z,14.10
2019-04-26T01:16:56.443Z,13.13
2019-04-26T01:19:33.425Z,14.55
2019-04-26T01:22:12.274Z,13.85
2019-04-26T01:24:49.985Z,13.62
2019-04-26T01:27:28.442Z,13.20
2019-04-26T01:30:10.178Z,12.88
2019-04-26T01:32:46.954Z,12.68
2019-04-26T01:35:24.173Z,13.53
2019-04-26T01:38:02.758Z,13.28
2019-04-26T01:40:42.483Z,13.55
2019-04-26T01:43:21.666Z,13.20
2019-04-26T01:46:02.914Z,14.70
2019-04-26T01:49:01.206Z,13.93
2019-04-26T01:51:48.931Z,14.15
2019-04-26T01:54:29.940Z,12.18
2019-04-26T01:57:06.472Z,12.73
2019-04-26T01:59:46.010Z,12.60
2019-04-26T02:02:32.617Z,12.75
2019-04-26T02:05:10.622Z,12.47
2019-04-26T02:07:46.900Z,13.83
2019-04-26T02:10:26.556Z,12.95
2019-04-26T02:13:02.691Z,13.22
2019-04-26T02:15:38.957Z,12.88
2019-04-26T02:18:14.919Z,12.58
2019-04-26T02:20:54.861Z,11.78
2019-04-26T02:23:38.597Z,13.58
2019-04-26T02:26:34.849Z,11.40
2019-04-26T02:29:13.963Z,11.78
2019-04-26T02:31:54.627Z,11.80
2019-04-26T02:34:35.227Z,11.05
2019-04-26T02:37:13.280Z,10.85
2019-04-26T02:39:49.665Z,11.28
2019-04-26T02:42:30.957Z,10.82
2019-04-26T02:45:20.840Z,10.63
2019-04-26T02:48:16.362Z,10.90
2019-04-26T02:50:56.823Z,11.50
2019-04-26T02:53:47.510Z,10.32
2019-04-26T02:56:30.297Z,10.20
2019-04-26T02:59:12.334Z,11.15
2019-04-26T03:01:50.694Z,10.53
2019-04-26T03:04:28.929Z,10.15
2019-04-26T03:07:09.007Z,10.50
2019-04-26T03:09:48.044Z,10.82
2019-04-26T03:12:26.965Z,10.80
2019-04-26T03:15:14.058Z,10.43
2019-04-26T03:17:56.927Z,10.43
2019-04-26T03:20:40.053Z,9.95
2019-04-26T03:23:20.193Z,10.55
2019-04-26T03:26:17.220Z,10.15
2019-04-26T03:29:02.090Z,8.68
2019-04-26T03:31:53.406Z,9.75
2019-04-26T03:34:43.367Z,9.13
2019-04-26T03:37:40.469Z,9.33
2019-04-26T03:40:38.945Z,9.10
2019-04-26T03:43:27.232Z,10.48
2019-04-26T03:46:24.219Z,10.60
2019-04-26T03:49:23.840Z,10.03
2019-04-26T03:52:19.562Z,10.20
2019-04-26T03:55:02.568Z,9.95
2019-04-26T03:57:47.025Z,8.63
2019-04-26T04:00:29.638Z,9.88
2019-04-26T04:03:26.835Z,9.70
2019-04-26T04:06:05.104Z,9.40
2019-04-26T04:08:48.164Z,9.25
2019-04-26T04:11:40.850Z,8.93
2019-04-26T04:14:34.964Z,8.25
2019-04-26T04:17:15.417Z,8.98
2019-04-26T04:20:13.710Z,8.33
2019-04-26T04:23:18.446Z,9.13
2019-04-26T04:25:56.365Z,8.83
2019-04-26T04:28:36.063Z,9.70
2019-04-26T04:31:35.254Z,9.05
2019-04-26T04:34:32.242Z,8.75
2019-04-26T04:37:11.151Z,9.20
2019-04-26T04:39:59.606Z,9.08
2019-04-26T04:42:58.414Z,9.58
2019-04-26T04:46:10.674Z,9.18
2019-04-26T04:49:25.530Z,9.38
2019-04-26T04:52:13.300Z,8.93
2019-04-26T04:55:06.769Z,9.68
2019-04-26T04:57:53.147Z,10.18
2019-04-26T05:00:56.061Z,9.58
2019-04-26T05:03:47.025Z,10.00
2019-04-26T05:06:35.809Z,9.98
2019-04-26T05:09:17.106Z,10.23
2019-04-26T05:12:07.943Z,9.53
2019-04-26T05:15:04.661Z,9.05
2019-04-26T05:17:43.475Z,8.85
2019-04-26T05:20:34.904Z,8.48
2019-04-26T05:23:42.541Z,8.53
2019-04-26T05:26:31.556Z,7.85
2019-04-26T05:29:42.123Z,8.13
2019-04-26T05:32:20.958Z,8.18
2019-04-26T05:35:06.029Z,7.87
2019-04-26T05:38:17.998Z,9.35
2019-04-26T05:41:03.195Z,8.55
2019-04-26T05:44:18.571Z,8.38
2019-04-26T05:47:31.094Z,7.80
2019-04-26T05:50:38.785Z,8.03
2019-04-26T05:53:44.755Z,8.48
2019-04-26T05:56:40.158Z,7.72
2019-04-26T05:59:46.589Z,6.58
2019-04-26T06:02:32.622Z,7.47
2019-04-26T06:05:25.183Z,7.67
2019-04-26T06:08:30.660Z,7.25
2019-04-26T06:11:02.705Z,7.08
2019-04-26T06:16:49.316Z,7.80
2019-04-26T06:19:57.327Z,6.78
2019-04-26T06:22:36.242Z,7.28
2019-04-26T06:25:31.348Z,7.40
2019-04-26T06:28:20.768Z,7.17
2019-04-26T06:31:03.493Z,6.67
2019-04-26T06:33:42.469Z,6.78
2019-04-26T06:36:23.139Z,6.72
2019-04-26T06:39:21.407Z,7.05
2019-04-26T06:42:09.600Z,6.42
2019-04-26T06:45:21.449Z,6.22
2019-04-26T06:48:23.014Z,6.33
2019-04-26T06:51:24.668Z,6.37
2019-04-26T06:54:07.492Z,6.35
2019-04-26T06:57:11.500Z,5.97
2019-04-26T06:59:57.418Z,8.25
2019-04-26T07:03:08.472Z,5.92
2019-04-26T07:05:47.808Z,4.72
2019-04-26T07:08:38.921Z,5.17
2019-04-26T07:11:31.466Z,5.65
2019-04-26T07:14:19.610Z,4.70
2019-04-26T07:17:04.574Z,5.00
2019-04-26T07:20:04.399Z,4.67
2019-04-26T07:23:19.556Z,5.08
2019-04-26T07:26:08.621Z,4.17
2019-04-26T07:29:13.770Z,4.90
2019-04-26T07:32:09.524Z,4.90
2019-04-26T07:35:02.711Z,4.85
2019-04-26T07:38:06.950Z,4.37
2019-04-26T07:41:15.889Z,5.05
2019-04-26T07:44:14.169Z,5.00
2019-04-26T07:47:03.084Z,4.72
2019-04-26T07:50:11.566Z,4.62
2019-04-26T07:53:17.827Z,4.70
2019-04-26T07:56:13.582Z,5.40
2019-04-26T07:59:09.355Z,4.80
2019-04-26T08:02:24.024Z,4.80
2019-04-26T08:05:05.753Z,4.87
2019-04-26T08:07:45.203Z,4.83
2019-04-26T08:10:23.411Z,4.70
2019-04-26T08:13:06.097Z,20.70
2019-04-26T08:16:06.726Z,5.35
2019-04-26T08:18:51.163Z,4.62
2019-04-26T08:21:32.036Z,4.80
2019-04-26T08:24:18.980Z,4.30
2019-04-26T08:27:18.788Z,4.17
2019-04-26T08:29:50.608Z,4.80
2019-04-26T08:32:32.061Z,4.70
2019-04-26T08:35:16.127Z,4.55
2019-04-26T08:37:52.949Z,5.00
2019-04-26T08:40:31.424Z,5.67
2019-04-26T08:43:10.882Z,4.67
2019-04-26T08:46:02.850Z,5.08
2019-04-26T08:48:47.698Z,4.75
2019-04-26T08:51:25.190Z,8.78
2019-04-26T08:54:05.752Z,6.05
2019-04-26T08:56:44.666Z,5.80
2019-04-26T08:59:26.665Z,5.10
2019-04-26T09:02:05.920Z,5.92
2019-04-26T09:04:45.644Z,6.67
2019-04-26T09:07:31.401Z,5.22
2019-04-26T09:10:11.282Z,7.17
2019-04-26T09:12:49.373Z,5.10
2019-04-26T09:15:43.271Z,5.15
2019-04-26T09:18:20.353Z,4.65
2019-04-26T09:20:56.608Z,5.03
2019-04-26T09:23:52.183Z,5.60
2019-04-26T09:26:32.545Z,5.90
2019-04-26T09:29:26.457Z,6.62
2019-04-26T09:32:16.282Z,4.37
2019-04-26T09:34:52.311Z,3.95
2019-04-26T09:37:28.462Z,4.20
2019-04-26T09:40:10.545Z,3.90
2019-04-26T09:42:48.932Z,4.70
2019-04-26T09:45:35.796Z,3.92
2019-04-26T09:48:13.279Z,4.72
2019-04-26T09:50:50.875Z,3.92
2019-04-26T09:53:26.839Z,4.42
2019-04-26T09:56:02.797Z,11.20
2019-04-26T09:58:38.743Z,4.03
2019-04-26T10:01:14.712Z,4.40
2019-04-26T10:03:51.790Z,3.98
2019-04-26T10:06:29.729Z,3.77
2019-04-26T10:09:10.353Z,4.65
2019-04-26T10:11:54.814Z,4.25
2019-04-26T10:14:32.411Z,3.42
2019-04-26T10:17:15.795Z,3.80
2019-04-26T10:19:52.170Z,4.03
2019-04-26T10:22:29.690Z,3.60
2019-04-26T10:25:16.135Z,4.08
2019-04-26T10:27:46.007Z,3.77
2019-04-26T10:30:22.384Z,3.33
2019-04-26T10:33:02.093Z,3.67
2019-04-26T10:35:36.033Z,3.60
2019-04-26T10:38:13.134Z,4.45
2019-04-26T10:40:49.077Z,3.67
2019-04-26T10:43:25.032Z,3.47
2019-04-26T10:46:00.980Z,3.45
2019-04-26T10:48:36.948Z,3.72
2019-04-26T10:51:14.433Z,3.17
2019-04-26T10:53:54.889Z,3.45
2019-04-26T10:56:35.359Z,2.83
2019-04-26T10:59:18.808Z,3.17
2019-04-26T11:01:54.850Z,3.47
2019-04-26T11:04:30.985Z,3.08
2019-04-26T11:07:07.067Z,3.55
2019-04-26T11:09:43.131Z,3.90
2019-04-26T11:12:20.367Z,3.10
2019-04-26T11:14:57.032Z,3.58
2019-04-26T11:17:33.251Z,3.35
2019-04-26T11:20:10.551Z,3.15
2019-04-26T11:22:47.112Z,3.20
2019-04-26T11:25:24.625Z,2.80
2019-04-26T11:28:00.762Z,2.77
2019-04-26T11:30:36.710Z,2.52
2019-04-26T11:33:12.866Z,2.67
2019-04-26T11:35:48.936Z,3.15
2019-04-26T11:38:26.883Z,2.52
2019-04-26T11:41:06.328Z,2.90
2019-04-26T11:43:40.079Z,3.17
2019-04-26T11:46:16.347Z,2.52
2019-04-26T11:48:58.891Z,2.77
2019-04-26T11:51:29.992Z,2.72
2019-04-26T11:54:05.961Z,2.60
2019-04-26T11:56:41.915Z,3.37
2019-04-26T11:59:17.858Z,3.12
2019-04-26T12:01:53.815Z,3.15
2019-04-26T12:04:31.325Z,4.00
2019-04-26T12:07:11.975Z,3.35
2019-04-26T12:09:49.501Z,2.90
2019-04-26T12:12:25.721Z,3.72
2019-04-26T12:15:03.876Z,2.70
2019-04-26T12:17:40.942Z,2.75
2019-04-26T12:20:16.889Z,2.70
2019-04-26T12:22:52.846Z,2.10
2019-04-26T12:25:31.079Z,2.90
2019-04-26T12:28:07.384Z,2.62
2019-04-26T12:30:43.480Z,2.87
2019-04-26T12:33:19.425Z,2.92
2019-04-26T12:35:57.063Z,2.47
2019-04-26T12:38:33.089Z,2.30
2019-04-26T12:41:11.418Z,2.60
2019-04-26T12:43:46.628Z,2.75
2019-04-26T12:46:36.205Z,2.50
2019-04-26T12:49:12.276Z,2.92
2019-04-26T12:51:48.838Z,2.65
2019-04-26T12:54:25.923Z,3.50
2019-04-26T12:57:05.823Z,4.55
2019-04-26T12:59:44.453Z,3.10
2019-04-26T13:02:20.970Z,3.05
2019-04-26T13:04:54.864Z,4.42
2019-04-26T13:07:30.833Z,3.12
2019-04-26T13:10:12.519Z,2.62
2019-04-26T13:12:53.176Z,3.22
2019-04-26T13:15:51.799Z,2.85
2019-04-26T13:18:27.941Z,3.55
2019-04-26T13:21:04.379Z,3.10
2019-04-26T13:23:40.565Z,2.95
2019-04-26T13:26:16.524Z,3.50
2019-04-26T13:28:56.977Z,3.10
2019-04-26T13:31:31.723Z,3.37
2019-04-26T13:34:08.076Z,3.05
2019-04-26T13:36:44.018Z,3.40
2019-04-26T13:39:22.393Z,3.98
2019-04-26T13:42:04.512Z,3.25
2019-04-26T13:44:56.473Z,3.83
2019-04-26T13:47:35.063Z,5.33
2019-04-26T13:50:15.463Z,3.85
2019-04-26T13:52:51.402Z,3.80
2019-04-26T13:55:29.440Z,4.00
2019-04-26T13:58:06.410Z,4.03
2019-04-26T14:00:43.566Z,3.80
2019-04-26T14:03:20.154Z,4.87
2019-04-26T14:05:56.098Z,3.62
2019-04-26T14:08:32.067Z,4.58
2019-04-26T14:11:08.112Z,4.20
2019-04-26T14:13:44.081Z,4.78
2019-04-26T14:16:21.166Z,4.08
2019-04-26T14:18:57.736Z,5.20
2019-04-26T14:21:34.830Z,4.25
2019-04-26T14:24:24.065Z,7.67
2019-04-26T14:27:04.143Z,4.22
2019-04-26T14:29:40.196Z,5.20
2019-04-26T14:32:16.155Z,5.30
2019-04-26T14:34:52.212Z,8.65
2019-04-26T14:37:29.183Z,4.15
2019-04-26T14:40:16.607Z,4.58
2019-04-26T14:42:47.201Z,4.75
2019-04-26T14:45:24.139Z,4.03
2019-04-26T14:48:03.982Z,4.37
2019-04-26T14:50:38.178Z,4.83
2019-04-26T14:53:14.071Z,6.15
2019-04-26T14:55:51.188Z,5.33
2019-04-26T14:58:30.092Z,5.33
2019-04-26T15:01:07.021Z,9.15
2019-04-26T15:04:00.586Z,5.35
2019-04-26T15:06:38.197Z,5.47
2019-04-26T15:09:19.820Z,5.62
2019-04-26T15:11:58.610Z,5.03
2019-04-26T15:14:31.221Z,4.40
2019-04-26T15:17:07.346Z,6.17
2019-04-26T15:19:45.919Z,5.22
2019-04-26T15:22:20.988Z,4.55
2019-04-26T15:24:57.266Z,4.83
2019-04-26T15:27:36.272Z,4.62
2019-04-26T15:30:11.326Z,4.65
2019-04-26T15:32:47.273Z,4.70
2019-04-26T15:35:23.325Z,4.62
2019-04-26T15:38:01.437Z,4.67
2019-04-26T15:40:42.480Z,4.60
2019-04-26T15:43:20.121Z,4.50
2019-04-26T15:46:14.031Z,7.80
2019-04-26T15:49:09.523Z,7.00
2019-04-26T15:51:46.079Z,4.75
2019-04-26T15:54:23.032Z,4.47
2019-04-26T15:56:59.009Z,5.45
2019-04-26T15:59:34.979Z,4.78
2019-04-26T16:02:12.440Z,4.62
2019-04-26T16:04:51.365Z,4.58
2019-04-26T16:07:28.793Z,4.30
2019-04-26T16:10:04.739Z,5.08
2019-04-26T16:12:42.249Z,4.78
2019-04-26T16:15:18.279Z,6.05
2019-04-26T16:17:54.238Z,4.90
2019-04-26T16:20:37.414Z,5.30
2019-04-26T16:23:09.016Z,5.42
2019-04-26T16:25:44.973Z,5.10
2019-04-26T16:28:26.570Z,5.25
2019-04-26T16:31:22.602Z,5.83
2019-04-26T16:34:04.105Z,16.02
2019-04-26T16:36:43.849Z,5.22
2019-04-26T16:39:16.089Z,4.95
2019-04-26T16:41:52.495Z,5.33
2019-04-26T16:44:31.411Z,6.05
2019-04-26T16:47:07.439Z,5.37
2019-04-26T16:49:46.250Z,5.37
2019-04-26T16:52:21.110Z,5.55
2019-04-26T16:55:02.323Z,5.53
2019-04-26T16:57:35.167Z,6.00
2019-04-26T17:00:15.800Z,5.80
2019-04-26T17:02:49.814Z,5.28
2019-04-26T17:05:46.904Z,5.45
2019-04-26T17:08:05.144Z,5.55
2019-04-26T17:10:42.041Z,15.00
2019-04-26T17:13:18.050Z,9.33
2019-04-26T17:15:58.235Z,6.30
2019-04-26T17:18:32.391Z,5.58
2019-04-26T17:21:08.461Z,5.30
2019-04-26T17:23:52.984Z,5.22
2019-04-26T17:26:36.437Z,6.58
2019-04-26T17:29:11.835Z,6.05
2019-04-26T17:31:47.728Z,5.87
2019-04-26T17:34:28.860Z,6.12
2019-04-26T17:37:02.474Z,9.55
2019-04-26T17:39:40.681Z,6.55
2019-04-26T17:42:16.705Z,5.70
2019-04-26T17:44:52.622Z,6.40
2019-04-26T17:47:34.650Z,6.55
2019-04-26T17:50:08.529Z,7.47
2019-04-26T17:52:44.447Z,7.62
2019-04-26T17:55:20.463Z,7.55
2019-04-26T17:58:09.733Z,8.08
2019-04-26T18:00:45.580Z,8.50
2019-04-26T18:03:14.850Z,8.18
2019-04-26T18:05:56.988Z,7.20
2019-04-26T18:08:41.061Z,6.60
2019-04-26T18:11:04.673Z,7.05
2019-04-26T18:13:40.711Z,9.35
2019-04-26T18:16:17.748Z,12.63
2019-04-26T18:19:13.073Z,11.63
2019-04-26T18:22:08.913Z,9.15
2019-04-26T18:24:44.978Z,7.55
2019-04-26T18:27:20.890Z,6.35
2019-04-26T18:29:59.810Z,7.42
2019-04-26T18:32:42.132Z,7.28
2019-04-26T18:35:16.642Z,7.70
2019-04-26T18:37:50.728Z,9.68
2019-04-26T18:40:26.682Z,8.65
2019-04-26T18:43:03.456Z,7.58
2019-04-26T18:45:39.556Z,8.15
2019-04-26T18:48:15.475Z,7.05
2019-04-26T18:50:51.383Z,6.65
2019-04-26T18:53:39.390Z,6.78
2019-04-26T18:56:14.036Z,7.55
2019-04-26T18:58:51.552Z,7.12
2019-04-26T19:01:27.551Z,8.03
2019-04-26T19:04:09.871Z,7.12
2019-04-26T19:06:42.323Z,7.65
2019-04-26T19:09:21.230Z,8.43
2019-04-26T19:11:57.602Z,8.25
2019-04-26T19:14:49.753Z,7.67
2019-04-26T19:17:33.832Z,8.17
2019-04-26T19:20:11.643Z,7.78
2019-04-26T19:22:50.397Z,7.62
2019-04-26T19:25:29.857Z,8.33
2019-04-26T19:28:08.189Z,7.60
2019-04-26T19:30:49.514Z,8.28
2019-04-26T19:33:21.806Z,7.10
2019-04-26T19:35:57.808Z,7.37
2019-04-26T19:38:33.816Z,8.08
2019-04-26T19:41:09.728Z,8.10
2019-04-26T19:43:46.287Z,7.35
2019-04-26T19:46:25.278Z,11.38
2019-04-26T19:49:19.060Z,9.18
2019-04-26T19:52:14.856Z,9.65
2019-04-26T19:54:53.029Z,8.40
2019-04-26T19:57:47.734Z,7.92
2019-04-26T20:00:25.073Z,8.78
2019-04-26T20:03:01.642Z,8.88
2019-04-26T20:05:40.593Z,9.93
2019-04-26T20:08:15.324Z,9.60
2019-04-26T20:10:52.085Z,11.43
2019-04-26T20:13:28.063Z,14.33
2019-04-26T20:16:06.053Z,14.68
2019-04-26T20:18:42.134Z,21.77
2019-04-26T20:21:18.070Z,28.15
2019-04-26T20:23:54.644Z,24.75
2019-04-26T20:26:31.500Z,22.80
2019-04-26T20:29:10.189Z,18.60
2019-04-26T20:31:47.832Z,15.38
2019-04-26T20:34:23.811Z,11.08
2019-04-26T20:37:01.391Z,10.95
2019-04-26T20:39:38.529Z,9.93
2019-04-26T20:42:14.593Z,9.88
2019-04-26T20:44:53.111Z,10.20
2019-04-26T20:47:28.240Z,9.48
2019-04-26T20:50:05.715Z,9.78
2019-04-26T20:52:41.692Z,10.15
2019-04-26T20:55:17.583Z,10.90
2019-04-26T20:57:53.604Z,10.03
2019-04-26T21:00:31.518Z,11.05
2019-04-26T21:03:20.135Z,10.63
2019-04-26T21:05:46.619Z,10.40
2019-04-26T21:08:25.770Z,10.10
2019-04-26T21:11:01.705Z,10.18
2019-04-26T21:13:38.251Z,9.73
2019-04-26T21:16:15.564Z,10.08
2019-04-26T21:18:52.352Z,10.75
2019-04-26T21:21:28.481Z,9.73
2019-04-26T21:24:05.843Z,10.40
2019-04-26T21:26:46.632Z,10.20
2019-04-26T21:29:28.324Z,9.58
2019-04-26T21:32:08.886Z,9.53
2019-04-26T21:34:50.487Z,9.70
2019-04-26T21:37:28.487Z,9.53
2019-04-26T21:40:07.345Z,10.08
2019-04-26T21:42:45.074Z,9.58
2019-04-26T21:45:28.463Z,9.75
2019-04-26T21:48:02.669Z,9.43
2019-04-26T21:50:39.051Z,10.03
2019-04-26T21:53:14.868Z,10.70
2019-04-26T21:55:50.818Z,9.78
2019-04-26T21:58:26.781Z,9.10
2019-04-26T22:01:04.467Z,9.30
2019-04-26T22:03:47.413Z,7.80
2019-04-26T22:06:24.487Z,8.85
2019-04-26T22:09:02.545Z,9.43
2019-04-26T22:11:38.506Z,9.35
2019-04-26T22:14:20.052Z,8.80
2019-04-26T22:17:02.318Z,8.20
2019-04-26T22:19:49.862Z,9.68
2019-04-26T22:22:27.354Z,9.00
2019-04-26T22:25:05.043Z,7.55
2019-04-26T22:27:40.951Z,7.22
2019-04-26T22:30:22.725Z,7.17
2019-04-26T22:32:58.532Z,7.90
2019-04-26T22:35:34.601Z,7.33
2019-04-26T22:38:10.561Z,6.50
2019-04-26T22:40:48.534Z,7.12
2019-04-26T22:43:28.528Z,6.87
2019-04-26T22:46:14.106Z,6.95
2019-04-26T22:48:54.645Z,6.50
2019-04-26T22:51:33.514Z,6.00
2019-04-26T22:54:07.284Z,5.58
2019-04-26T22:56:43.830Z,6.08
2019-04-26T22:59:20.850Z,6.22
2019-04-26T23:01:56.795Z,6.53
2019-04-26T23:04:33.056Z,6.65
2019-04-26T23:07:10.859Z,6.37
2019-04-26T23:09:51.777Z,6.97
2019-04-26T23:12:33.419Z,6.78
2019-04-26T23:15:30.142Z,6.97
2019-04-26T23:18:14.014Z,6.90
2019-04-26T23:20:51.103Z,8.00
2019-04-26T23:23:27.044Z,7.70
2019-04-26T23:26:06.304Z,8.03
2019-04-26T23:28:40.915Z,7.30
2019-04-26T23:31:16.861Z,8.20
2019-04-26T23:33:53.939Z,7.15
2019-04-26T23:36:30.112Z,7.62
2019-04-26T23:39:07.717Z,7.60
2019-04-26T23:41:45.303Z,8.38
2019-04-26T23:44:23.067Z,8.58
2019-04-26T23:47:01.209Z,8.50
2019-04-26T23:49:36.654Z,9.73
2019-04-26T23:52:14.569Z,8.95
2019-04-26T23:54:50.402Z,10.18
2019-04-26T23:57:27.400Z,10.35
